Home   Weather   Australia   Melbourne   Past weeks
Flag for Australia

Past Weather in Melbourne, Victoria, Australia — February 2020

Currently: 59 °F. Passing clouds. (Weather station: Melbourne Airport, Australia). See more current weather

February 2020 Weather in Melbourne — Graph

°F

High & Low Weather Summary for February 2020

 TemperatureHumidityPressure
High93 °F (Feb 23, 4:00 pm)100% (Feb 1, 2:30 pm)30.24 "Hg (Feb 1, 2:30 pm)
Low45 °F (Feb 27, 3:30 am)21% (Feb 23, 4:00 pm)29.62 "Hg (Feb 18, 5:00 pm)
Average65 °F75%29.94 "Hg
* Reported Feb 1 12:00 am — Feb 29 11:00 pm, Melbourne. Weather by CustomWeather, © 2023

Note: Actual official high and low records may vary slightly from our data, if they occured in-between our weather recording intervals... More about our weather records

Melbourne Weather History for February 1, 2020

Scroll right to see more
 ConditionsComfort  
Time TempWeatherWind HumidityBarometerVisibility
12:00 am
Sat, Feb 1
77 °FScattered showers. Clear.7 mph74%29.74 "HgN/A
12:30 am75 °FScattered showers. Clear.1 mph83%29.74 "HgN/A
1:30 am75 °FClear.7 mph83%29.77 "Hg10 mi
2:00 am73 °FClear.6 mph94%29.74 "Hg10 mi
2:30 am75 °FClear.6 mph83%29.77 "Hg10 mi
3:00 am75 °FPassing clouds.6 mph83%29.77 "HgN/A
3:30 am75 °FPassing clouds.7 mph83%29.74 "HgN/A
4:00 am75 °FClear.9 mph83%29.71 "Hg10 mi
4:30 am75 °FClear.10 mph83%29.71 "Hg10 mi
5:00 am75 °FClear.13 mph83%29.71 "Hg10 mi
5:30 am75 °FClear.10 mph83%29.71 "Hg10 mi
6:00 am77 °FClear.12 mph74%29.71 "Hg10 mi
6:30 am81 °FPassing clouds.13 mph66%29.71 "HgN/A
7:00 am82 °FBroken clouds.15 mph62%29.71 "HgN/A
7:30 am82 °FSunny.15 mph66%29.71 "Hg10 mi
8:00 am82 °FSunny.13 mph66%29.71 "Hg10 mi
8:30 am82 °FSunny.14 mph62%29.74 "Hg10 mi
9:00 am84 °FScattered clouds.13 mph58%29.74 "HgN/A
9:30 am82 °FSunny.10 mph62%29.74 "Hg10 mi
10:00 am82 °FSunny.12 mph62%29.74 "Hg10 mi
10:30 am82 °FSunny.10 mph62%29.77 "Hg10 mi
11:00 am82 °FLight rain. Clear.12 mph62%29.77 "HgN/A
12:00 pm82 °FSunny.12 mph66%29.77 "Hg10 mi
12:30 pm81 °FPartly sunny.12 mph74%29.77 "HgN/A
1:00 pm81 °FBroken clouds.9 mph70%29.77 "HgN/A
1:17 pm72 °FBroken clouds.14 mph88%29.77 "HgN/A
1:30 pm70 °FPartly sunny.15 mph88%29.77 "HgN/A
2:30 pm66 °FLight rain. Partly sunny.12 mph100%29.80 "Hg6 mi
2:50 pm66 °FRain. Low clouds.8 mph100%29.80 "Hg2 mi
3:00 pm66 °FRain. Low clouds.12 mph100%29.80 "Hg2 mi
3:30 pm66 °FRain. Low clouds.10 mph94%29.80 "Hg2 mi
4:00 pm64 °FRain. Partly sunny.12 mph100%29.80 "Hg5 mi
4:30 pm64 °FLight rain. Mostly cloudy.10 mph94%29.80 "HgN/A
5:06 pm64 °FRain. Low clouds.8 mph94%29.83 "Hg3 mi
5:30 pm63 °FLight rain. Partly sunny.10 mph100%29.83 "Hg4 mi
6:00 pm63 °FLight rain. Partly sunny.10 mph94%29.83 "HgN/A
6:34 pm61 °FDrizzle. Low clouds.13 mph100%29.86 "Hg2 mi
7:00 pm61 °FDrizzle. Mostly cloudy.12 mph100%29.86 "Hg2 mi
7:30 pm61 °FDrizzle. More clouds than sun.12 mph94%29.86 "Hg2 mi
8:03 pm61 °FDrizzle. More clouds than sun.8 mph100%29.89 "Hg2 mi
8:30 pm61 °FDrizzle. Mostly cloudy.9 mph94%29.89 "Hg1 mi
9:00 pm61 °FDrizzle. Mostly cloudy.7 mph94%29.89 "Hg1 mi
9:30 pm61 °FMostly cloudy.8 mph94%29.89 "HgN/A
10:00 pm61 °FDrizzle. Mostly cloudy.8 mph94%29.89 "HgN/A
10:30 pm61 °FDrizzle. Mostly cloudy.8 mph94%29.86 "Hg4 mi
11:00 pm61 °FDrizzle. Mostly cloudy.8 mph94%29.89 "Hg4 mi
11:30 pm59 °FMostly cloudy.10 mph100%29.89 "HgN/A
Weather by CustomWeather, © 2023

See weather overview